aviador You're here:

OINN Decoded Metar

NOSHAHR in IRAN
Report Time2018-07-22 16:00:00
UTC Time2018-07-22 16:34:12
Flight Rules vfr VFR
Wind180° at 04 kt
W.Decomp.*RWY 10: 1.0 kt HW 3.9 kt RCW
W.Rank180° ranks 3
Current wind is below 180° avg. (4.3)
Visibility9999 m
Phenomena:N/A
Clouds:Few CB 020 Hf
Scattered 025 Hf
Overcast 080 Hf
Expected CloudBase > 1,600 ft AGL from Temp-Dew spread
Ceiling8,000 ft
Temp27°C (ISA +12)
Dew Point23°C (79% RH)
Heat Index29.6°C
QNH1003 hPa
Density Alt2,014 ft
Elevation-62 ft
Report Wrong Elevation
Raw Report
METAR OINN 221600Z 18004KT 9999 FEW020CB SCT025 OVC080 27/23 Q1003=

Extra information for OINN:More info

Metar Taf Metar & Taf Last 4 Metars F.Rules Stats Wind Profile Meteogram Temp Stats Airport Information Weather charts Add Link Nearby VenuesMetar ALERT Operation Metar Decoded Social comments